sensor_id;sensor_type;location;lat;lon;timestamp;pressure;altitude;pressure_sealevel;temperature;humidity
68169;BME280;54981;50.206;15.978;2023-08-31T00:02:14;98168.75;;;12.80;100.00
68169;BME280;54981;50.206;15.978;2023-08-31T00:04:45;98166.56;;;12.74;100.00
68169;BME280;54981;50.206;15.978;2023-08-31T00:07:15;98171.41;;;12.69;100.00
68169;BME280;54981;50.206;15.978;2023-08-31T00:09:46;98173.63;;;12.75;100.00
68169;BME280;54981;50.206;15.978;2023-08-31T00:12:16;98173.03;;;12.83;100.00
68169;BME280;54981;50.206;15.978;2023-08-31T00:14:46;98180.28;;;12.81;100.00
68169;BME280;54981;50.206;15.978;2023-08-31T00:17:17;98178.38;;;12.83;100.00
68169;BME280;54981;50.206;15.978;2023-08-31T00:19:48;98177.72;;;12.79;100.00
68169;BME280;54981;50.206;15.978;2023-08-31T00:22:18;98171.78;;;12.87;100.00
68169;BME280;54981;50.206;15.978;2023-08-31T00:24:48;98172.19;;;12.82;100.00
68169;BME280;54981;50.206;15.978;2023-08-31T00:27:19;98170.09;;;12.86;100.00
68169;BME280;54981;50.206;15.978;2023-08-31T00:29:51;98164.16;;;12.82;100.00
68169;BME280;54981;50.206;15.978;2023-08-31T00:32:22;98171.78;;;12.87;100.00
68169;BME280;54981;50.206;15.978;2023-08-31T00:34:53;98179.44;;;12.80;100.00
68169;BME280;54981;50.206;15.978;2023-08-31T00:37:23;98182.22;;;12.78;100.00
68169;BME280;54981;50.206;15.978;2023-08-31T00:39:54;98182.72;;;12.84;100.00
68169;BME280;54981;50.206;15.978;2023-08-31T00:42:25;98181.13;;;12.81;100.00
68169;BME280;54981;50.206;15.978;2023-08-31T00:44:56;98188.66;;;12.76;100.00
68169;BME280;54981;50.206;15.978;2023-08-31T00:47:26;98194.00;;;12.76;100.00
68169;BME280;54981;50.206;15.978;2023-08-31T00:49:57;98187.19;;;12.72;100.00
68169;BME280;54981;50.206;15.978;2023-08-31T00:52:28;98187.41;;;12.69;100.00
68169;BME280;54981;50.206;15.978;2023-08-31T00:54:59;98189.47;;;12.65;100.00
68169;BME280;54981;50.206;15.978;2023-08-31T00:57:31;98192.16;;;12.65;100.00
68169;BME280;54981;50.206;15.978;2023-08-31T01:00:01;98189.84;;;12.61;100.00
68169;BME280;54981;50.206;15.978;2023-08-31T01:02:58;98191.03;;;12.56;100.00
68169;BME280;54981;50.206;15.978;2023-08-31T01:08:26;98192.22;;;12.52;100.00
68169;BME280;54981;50.206;15.978;2023-08-31T01:14:23;98190.13;;;12.45;100.00
68169;BME280;54981;50.206;15.978;2023-08-31T01:16:57;98187.78;;;12.40;100.00
68169;BME280;54981;50.206;15.978;2023-08-31T01:22:21;98181.50;;;12.41;100.00
68169;BME280;54981;50.206;15.978;2023-08-31T01:24:55;98183.34;;;12.52;100.00
68169;BME280;54981;50.206;15.978;2023-08-31T01:27:26;98193.28;;;12.50;100.00
68169;BME280;54981;50.206;15.978;2023-08-31T01:29:57;98184.44;;;12.49;100.00
68169;BME280;54981;50.206;15.978;2023-08-31T01:32:28;98189.03;;;12.47;100.00
68169;BME280;54981;50.206;15.978;2023-08-31T01:35:00;98190.13;;;12.45;100.00
68169;BME280;54981;50.206;15.978;2023-08-31T01:40:30;98181.03;;;12.23;100.00
68169;BME280;54981;50.206;15.978;2023-08-31T01:43:03;98188.47;;;12.31;100.00
68169;BME280;54981;50.206;15.978;2023-08-31T01:45:35;98187.72;;;12.29;100.00
68169;BME280;54981;50.206;15.978;2023-08-31T01:48:08;98190.63;;;12.26;100.00
68169;BME280;54981;50.206;15.978;2023-08-31T01:50:38;98194.44;;;12.10;100.00
68169;BME280;54981;50.206;15.978;2023-08-31T01:53:08;98185.34;;;12.13;100.00
68169;BME280;54981;50.206;15.978;2023-08-31T01:55:39;98187.19;;;12.12;100.00
68169;BME280;54981;50.206;15.978;2023-08-31T01:58:09;98186.44;;;12.10;100.00
68169;BME280;54981;50.206;15.978;2023-08-31T02:00:39;98181.94;;;12.11;100.00
68169;BME280;54981;50.206;15.978;2023-08-31T02:03:10;98191.97;;;12.07;100.00
68169;BME280;54981;50.206;15.978;2023-08-31T02:05:41;98195.63;;;12.06;100.00
68169;BME280;54981;50.206;15.978;2023-08-31T02:08:11;98185.19;;;12.03;100.00
68169;BME280;54981;50.206;15.978;2023-08-31T02:10:42;98196.09;;;12.00;100.00
68169;BME280;54981;50.206;15.978;2023-08-31T02:13:14;98184.78;;;11.97;100.00
68169;BME280;54981;50.206;15.978;2023-08-31T02:15:44;98194.28;;;11.88;100.00
68169;BME280;54981;50.206;15.978;2023-08-31T02:18:14;98193.97;;;11.80;100.00
68169;BME280;54981;50.206;15.978;2023-08-31T02:20:45;98199.72;;;11.73;100.00
68169;BME280;54981;50.206;15.978;2023-08-31T02:23:15;98199.28;;;11.80;100.00
68169;BME280;54981;50.206;15.978;2023-08-31T02:25:46;98194.38;;;11.73;100.00
68169;BME280;54981;50.206;15.978;2023-08-31T02:28:16;98201.78;;;11.70;100.00
68169;BME280;54981;50.206;15.978;2023-08-31T02:31:00;98202.09;;;11.65;100.00
68169;BME280;54981;50.206;15.978;2023-08-31T02:33:31;98196.75;;;11.65;100.00
68169;BME280;54981;50.206;15.978;2023-08-31T02:36:02;98197.41;;;11.56;100.00
68169;BME280;54981;50.206;15.978;2023-08-31T02:38:32;98199.78;;;11.48;100.00
68169;BME280;54981;50.206;15.978;2023-08-31T02:41:02;98200.00;;;11.45;100.00
68169;BME280;54981;50.206;15.978;2023-08-31T02:43:33;98200.94;;;11.44;100.00
68169;BME280;54981;50.206;15.978;2023-08-31T02:46:03;98200.72;;;11.47;100.00
68169;BME280;54981;50.206;15.978;2023-08-31T02:48:34;98196.47;;;11.44;100.00
68169;BME280;54981;50.206;15.978;2023-08-31T02:51:04;98195.09;;;11.39;100.00
68169;BME280;54981;50.206;15.978;2023-08-31T02:53:35;98196.16;;;11.36;100.00
68169;BME280;54981;50.206;15.978;2023-08-31T02:56:05;98203.84;;;11.41;100.00
68169;BME280;54981;50.206;15.978;2023-08-31T02:58:35;98201.16;;;11.41;100.00
68169;BME280;54981;50.206;15.978;2023-08-31T03:01:10;98201.03;;;11.42;100.00
68169;BME280;54981;50.206;15.978;2023-08-31T03:03:43;98204.69;;;11.41;100.00
68169;BME280;54981;50.206;15.978;2023-08-31T03:06:16;98197.44;;;11.43;100.00
68169;BME280;54981;50.206;15.978;2023-08-31T03:08:47;98200.00;;;11.45;100.00
68169;BME280;54981;50.206;15.978;2023-08-31T03:11:17;98198.06;;;11.47;100.00
68169;BME280;54981;50.206;15.978;2023-08-31T03:13:47;98191.25;;;11.43;100.00
68169;BME280;54981;50.206;15.978;2023-08-31T03:16:18;98195.94;;;11.52;100.00
68169;BME280;54981;50.206;15.978;2023-08-31T03:18:48;98194.44;;;11.48;100.00
68169;BME280;54981;50.206;15.978;2023-08-31T03:21:18;98185.28;;;11.52;100.00
68169;BME280;54981;50.206;15.978;2023-08-31T03:23:50;98188.66;;;11.54;100.00
68169;BME280;54981;50.206;15.978;2023-08-31T03:26:20;98188.78;;;11.52;100.00
68169;BME280;54981;50.206;15.978;2023-08-31T03:28:50;98192.06;;;11.56;100.00
68169;BME280;54981;50.206;15.978;2023-08-31T03:31:21;98201.38;;;11.50;100.00
68169;BME280;54981;50.206;15.978;2023-08-31T03:33:51;98194.44;;;11.48;100.00
68169;BME280;54981;50.206;15.978;2023-08-31T03:36:21;98199.13;;;11.44;100.00
68169;BME280;54981;50.206;15.978;2023-08-31T03:38:52;98200.66;;;11.36;100.00
68169;BME280;54981;50.206;15.978;2023-08-31T03:41:22;98199.91;;;11.34;100.00
68169;BME280;54981;50.206;15.978;2023-08-31T03:43:53;98211.72;;;11.29;100.00
68169;BME280;54981;50.206;15.978;2023-08-31T03:46:23;98215.78;;;11.22;100.00
68169;BME280;54981;50.206;15.978;2023-08-31T03:48:54;98213.31;;;11.19;100.00
68169;BME280;54981;50.206;15.978;2023-08-31T03:51:24;98207.03;;;11.20;100.00
68169;BME280;54981;50.206;15.978;2023-08-31T03:53:55;98208.22;;;11.16;100.00
68169;BME280;54981;50.206;15.978;2023-08-31T03:56:26;98212.03;;;11.12;100.00
68169;BME280;54981;50.206;15.978;2023-08-31T03:58:57;98208.94;;;11.05;100.00
68169;BME280;54981;50.206;15.978;2023-08-31T04:01:27;98207.34;;;11.03;100.00
68169;BME280;54981;50.206;15.978;2023-08-31T04:03:58;98212.88;;;11.00;100.00
68169;BME280;54981;50.206;15.978;2023-08-31T04:06:28;98215.03;;;10.95;100.00
68169;BME280;54981;50.206;15.978;2023-08-31T04:08:59;98212.75;;;10.88;100.00
68169;BME280;54981;50.206;15.978;2023-08-31T04:11:29;98218.94;;;10.89;100.00
68169;BME280;54981;50.206;15.978;2023-08-31T04:13:59;98220.44;;;10.80;100.00
68169;BME280;54981;50.206;15.978;2023-08-31T04:16:31;98222.66;;;10.86;100.00
68169;BME280;54981;50.206;15.978;2023-08-31T04:19:02;98225.22;;;10.75;100.00
68169;BME280;54981;50.206;15.978;2023-08-31T04:21:32;98229.56;;;10.76;100.00
68169;BME280;54981;50.206;15.978;2023-08-31T04:24:03;98232.31;;;10.75;100.00
68169;BME280;54981;50.206;15.978;2023-08-31T04:26:33;98229.78;;;10.73;100.00
68169;BME280;54981;50.206;15.978;2023-08-31T04:29:03;98233.00;;;10.78;100.00
68169;BME280;54981;50.206;15.978;2023-08-31T04:31:35;98232.44;;;10.73;100.00
68169;BME280;54981;50.206;15.978;2023-08-31T04:34:06;98227.31;;;10.70;100.00
68169;BME280;54981;50.206;15.978;2023-08-31T04:36:37;98235.94;;;10.61;100.00
68169;BME280;54981;50.206;15.978;2023-08-31T04:39:07;98241.97;;;10.63;100.00
68169;BME280;54981;50.206;15.978;2023-08-31T04:41:38;98240.19;;;10.63;100.00
68169;BME280;54981;50.206;15.978;2023-08-31T04:44:08;98249.03;;;10.64;100.00
68169;BME280;54981;50.206;15.978;2023-08-31T04:46:38;98239.97;;;10.66;100.00
68169;BME280;54981;50.206;15.978;2023-08-31T04:49:09;98240.63;;;10.70;100.00
68169;BME280;54981;50.206;15.978;2023-08-31T04:51:39;98242.13;;;10.74;100.00
68169;BME280;54981;50.206;15.978;2023-08-31T04:54:11;98238.09;;;10.81;100.00
68169;BME280;54981;50.206;15.978;2023-08-31T04:56:42;98235.88;;;10.88;100.00
68169;BME280;54981;50.206;15.978;2023-08-31T04:59:12;98239.09;;;10.93;100.00
68169;BME280;54981;50.206;15.978;2023-08-31T05:01:42;98242.19;;;11.00;100.00
68169;BME280;54981;50.206;15.978;2023-08-31T05:04:13;98248.59;;;11.10;100.00
68169;BME280;54981;50.206;15.978;2023-08-31T05:06:43;98255.22;;;11.17;100.00
68169;BME280;54981;50.206;15.978;2023-08-31T05:09:14;98256.50;;;11.24;100.00
68169;BME280;54981;50.206;15.978;2023-08-31T05:11:44;98260.66;;;11.28;100.00
68169;BME280;54981;50.206;15.978;2023-08-31T05:14:14;98267.59;;;11.44;100.00
68169;BME280;54981;50.206;15.978;2023-08-31T05:16:45;98270.59;;;11.52;100.00
68169;BME280;54981;50.206;15.978;2023-08-31T05:19:15;98269.91;;;11.61;100.00
68169;BME280;54981;50.206;15.978;2023-08-31T05:21:46;98269.94;;;11.74;100.00
68169;BME280;54981;50.206;15.978;2023-08-31T05:24:16;98274.72;;;11.94;100.00
68169;BME280;54981;50.206;15.978;2023-08-31T05:26:46;98270.44;;;12.05;100.00
68169;BME280;54981;50.206;15.978;2023-08-31T05:29:17;98279.28;;;12.18;100.00
68169;BME280;54981;50.206;15.978;2023-08-31T05:31:47;98272.81;;;12.33;100.00
68169;BME280;54981;50.206;15.978;2023-08-31T05:34:20;98283.00;;;12.52;100.00
68169;BME280;54981;50.206;15.978;2023-08-31T05:36:51;98278.47;;;12.66;100.00
68169;BME280;54981;50.206;15.978;2023-08-31T05:39:22;98278.88;;;12.72;100.00
68169;BME280;54981;50.206;15.978;2023-08-31T05:41:52;98279.25;;;12.79;100.00
68169;BME280;54981;50.206;15.978;2023-08-31T05:44:22;98283.22;;;12.97;100.00
68169;BME280;54981;50.206;15.978;2023-08-31T05:46:53;98273.75;;;13.05;100.00
68169;BME280;54981;50.206;15.978;2023-08-31T05:49:23;98284.44;;;13.29;100.00
68169;BME280;54981;50.206;15.978;2023-08-31T05:51:54;98284.47;;;13.40;100.00
68169;BME280;54981;50.206;15.978;2023-08-31T05:54:24;98292.84;;;13.47;100.00
68169;BME280;54981;50.206;15.978;2023-08-31T05:56:55;98301.25;;;13.53;100.00
68169;BME280;54981;50.206;15.978;2023-08-31T05:59:25;98294.09;;;13.65;100.00
68169;BME280;54981;50.206;15.978;2023-08-31T06:01:55;98301.88;;;13.68;100.00
68169;BME280;54981;50.206;15.978;2023-08-31T06:04:26;98305.94;;;13.74;100.00
68169;BME280;54981;50.206;15.978;2023-08-31T06:06:56;98307.72;;;13.73;100.00
68169;BME280;54981;50.206;15.978;2023-08-31T06:09:26;98308.47;;;13.75;100.00
68169;BME280;54981;50.206;15.978;2023-08-31T06:11:57;98312.34;;;13.60;100.00
68169;BME280;54981;50.206;15.978;2023-08-31T06:14:27;98314.91;;;13.61;100.00
68169;BME280;54981;50.206;15.978;2023-08-31T06:16:58;98324.28;;;13.67;100.00
68169;BME280;54981;50.206;15.978;2023-08-31T06:19:28;98316.50;;;13.64;100.00
68169;BME280;54981;50.206;15.978;2023-08-31T06:21:58;98326.47;;;13.62;100.00
68169;BME280;54981;50.206;15.978;2023-08-31T06:24:29;98327.44;;;13.72;100.00
68169;BME280;54981;50.206;15.978;2023-08-31T06:26:59;98331.31;;;13.68;100.00
68169;BME280;54981;50.206;15.978;2023-08-31T06:29:30;98330.38;;;13.69;100.00
68169;BME280;54981;50.206;15.978;2023-08-31T06:32:00;98334.59;;;13.60;100.00
68169;BME280;54981;50.206;15.978;2023-08-31T06:34:31;98347.25;;;13.70;100.00
68169;BME280;54981;50.206;15.978;2023-08-31T06:37:01;98341.78;;;13.82;100.00
68169;BME280;54981;50.206;15.978;2023-08-31T06:39:31;98350.09;;;13.91;100.00
68169;BME280;54981;50.206;15.978;2023-08-31T06:42:03;98351.81;;;14.03;100.00
68169;BME280;54981;50.206;15.978;2023-08-31T06:44:34;98358.63;;;14.18;100.00
68169;BME280;54981;50.206;15.978;2023-08-31T06:47:04;98350.47;;;14.31;100.00
68169;BME280;54981;50.206;15.978;2023-08-31T06:49:34;98352.03;;;14.45;100.00
68169;BME280;54981;50.206;15.978;2023-08-31T06:52:05;98351.56;;;14.62;100.00
68169;BME280;54981;50.206;15.978;2023-08-31T06:54:38;98349.22;;;14.80;100.00
68169;BME280;54981;50.206;15.978;2023-08-31T06:57:08;98342.19;;;15.00;100.00
68169;BME280;54981;50.206;15.978;2023-08-31T06:59:38;98349.94;;;15.15;100.00
68169;BME280;54981;50.206;15.978;2023-08-31T07:02:09;98348.91;;;15.27;100.00
68169;BME280;54981;50.206;15.978;2023-08-31T07:04:39;98351.28;;;15.41;100.00
68169;BME280;54981;50.206;15.978;2023-08-31T07:07:09;98352.78;;;15.34;100.00
68169;BME280;54981;50.206;15.978;2023-08-31T07:09:42;98353.06;;;15.31;100.00
68169;BME280;54981;50.206;15.978;2023-08-31T07:12:12;98343.63;;;15.37;100.00
68169;BME280;54981;50.206;15.978;2023-08-31T07:14:43;98343.91;;;15.33;100.00
68169;BME280;54981;50.206;15.978;2023-08-31T07:17:17;98360.03;;;15.54;100.00
68169;BME280;54981;50.206;15.978;2023-08-31T07:19:48;98357.78;;;15.60;100.00
68169;BME280;54981;50.206;15.978;2023-08-31T07:22:18;98351.66;;;15.69;100.00
68169;BME280;54981;50.206;15.978;2023-08-31T07:24:49;98360.28;;;15.51;100.00
68169;BME280;54981;50.206;15.978;2023-08-31T07:27:20;98362.19;;;15.40;100.00
68169;BME280;54981;50.206;15.978;2023-08-31T07:29:50;98364.78;;;15.30;100.00
68169;BME280;54981;50.206;15.978;2023-08-31T07:32:21;98371.84;;;15.31;100.00
68169;BME280;54981;50.206;15.978;2023-08-31T07:34:52;98372.34;;;15.25;100.00
68169;BME280;54981;50.206;15.978;2023-08-31T07:37:23;98382.56;;;15.31;100.00
68169;BME280;54981;50.206;15.978;2023-08-31T07:39:53;98376.81;;;15.36;100.00
68169;BME280;54981;50.206;15.978;2023-08-31T07:42:23;98380.34;;;15.36;100.00
68169;BME280;54981;50.206;15.978;2023-08-31T07:44:54;98389.13;;;15.38;100.00
68169;BME280;54981;50.206;15.978;2023-08-31T07:47:24;98388.59;;;15.12;100.00
68169;BME280;54981;50.206;15.978;2023-08-31T07:49:54;98381.38;;;15.24;100.00
68169;BME280;54981;50.206;15.978;2023-08-31T07:52:25;98373.94;;;15.27;100.00
68169;BME280;54981;50.206;15.978;2023-08-31T07:54:55;98382.06;;;15.37;100.00
68169;BME280;54981;50.206;15.978;2023-08-31T07:57:25;98380.75;;;15.52;100.00
68169;BME280;54981;50.206;15.978;2023-08-31T07:59:56;98376.75;;;15.68;100.00
68169;BME280;54981;50.206;15.978;2023-08-31T08:02:27;98382.06;;;15.90;100.00
68169;BME280;54981;50.206;15.978;2023-08-31T08:04:58;98387.47;;;16.21;100.00
68169;BME280;54981;50.206;15.978;2023-08-31T08:07:28;98393.91;;;16.39;100.00
68169;BME280;54981;50.206;15.978;2023-08-31T08:09:58;98388.69;;;16.78;100.00
68169;BME280;54981;50.206;15.978;2023-08-31T08:12:39;98382.50;;;16.88;100.00
68169;BME280;54981;50.206;15.978;2023-08-31T08:15:10;98386.53;;;16.72;100.00
68169;BME280;54981;50.206;15.978;2023-08-31T08:17:41;98393.97;;;16.59;100.00
68169;BME280;54981;50.206;15.978;2023-08-31T08:20:13;98394.44;;;16.74;100.00
68169;BME280;54981;50.206;15.978;2023-08-31T08:22:44;98397.47;;;16.80;100.00
68169;BME280;54981;50.206;15.978;2023-08-31T08:25:15;98406.03;;;16.65;100.00
68169;BME280;54981;50.206;15.978;2023-08-31T08:27:48;98409.50;;;16.46;100.00
68169;BME280;54981;50.206;15.978;2023-08-31T08:30:19;98419.84;;;16.50;100.00
68169;BME280;54981;50.206;15.978;2023-08-31T08:32:49;98416.91;;;16.32;100.00
68169;BME280;54981;50.206;15.978;2023-08-31T08:35:19;98424.13;;;16.11;100.00
68169;BME280;54981;50.206;15.978;2023-08-31T08:37:50;98426.16;;;16.18;100.00
68169;BME280;54981;50.206;15.978;2023-08-31T08:40:20;98420.69;;;16.51;100.00
68169;BME280;54981;50.206;15.978;2023-08-31T08:42:52;98420.88;;;16.69;100.00
68169;BME280;54981;50.206;15.978;2023-08-31T08:45:24;98422.03;;;17.16;100.00
68169;BME280;54981;50.206;15.978;2023-08-31T08:47:57;98424.59;;;17.18;100.00
68169;BME280;54981;50.206;15.978;2023-08-31T08:50:27;98423.31;;;17.12;100.00
68169;BME280;54981;50.206;15.978;2023-08-31T08:53:00;98425.13;;;17.02;100.00
68169;BME280;54981;50.206;15.978;2023-08-31T08:55:32;98423.28;;;17.02;100.00
68169;BME280;54981;50.206;15.978;2023-08-31T09:09:19;98418.09;;;17.20;100.00
68169;BME280;54981;50.206;15.978;2023-08-31T09:11:49;98424.25;;;16.92;100.00
68169;BME280;54981;50.206;15.978;2023-08-31T09:14:20;98422.16;;;17.15;100.00
68169;BME280;54981;50.206;15.978;2023-08-31T09:16:51;98433.84;;;17.64;100.00
68169;BME280;54981;50.206;15.978;2023-08-31T09:19:23;98430.75;;;17.88;100.00
68169;BME280;54981;50.206;15.978;2023-08-31T09:21:56;98434.81;;;17.53;100.00
68169;BME280;54981;50.206;15.978;2023-08-31T09:24:27;98441.63;;;17.77;100.00
68169;BME280;54981;50.206;15.978;2023-08-31T09:26:58;98436.25;;;17.77;100.00
68169;BME280;54981;50.206;15.978;2023-08-31T09:29:28;98440.06;;;17.45;100.00
68169;BME280;54981;50.206;15.978;2023-08-31T09:31:59;98433.38;;;17.10;100.00
68169;BME280;54981;50.206;15.978;2023-08-31T09:34:33;98434.38;;;17.29;100.00
68169;BME280;54981;50.206;15.978;2023-08-31T09:37:06;98435.53;;;17.75;100.00
68169;BME280;54981;50.206;15.978;2023-08-31T09:39:39;98430.03;;;17.96;100.00
68169;BME280;54981;50.206;15.978;2023-08-31T09:42:10;98422.63;;;18.17;100.00
68169;BME280;54981;50.206;15.978;2023-08-31T09:44:43;98432.41;;;18.65;100.00
68169;BME280;54981;50.206;15.978;2023-08-31T09:47:13;98427.59;;;19.24;100.00
68169;BME280;54981;50.206;15.978;2023-08-31T09:49:47;98427.44;;;19.26;100.00
68169;BME280;54981;50.206;15.978;2023-08-31T09:52:18;98425.78;;;19.78;100.00
68169;BME280;54981;50.206;15.978;2023-08-31T09:54:50;98423.53;;;19.56;100.00
68169;BME280;54981;50.206;15.978;2023-08-31T09:57:21;98425.59;;;19.62;100.00
68169;BME280;54981;50.206;15.978;2023-08-31T09:59:53;98410.94;;;19.47;100.00
68169;BME280;54981;50.206;15.978;2023-08-31T10:02:24;98419.50;;;19.60;100.00
68169;BME280;54981;50.206;15.978;2023-08-31T10:04:56;98430.81;;;19.28;100.00
68169;BME280;54981;50.206;15.978;2023-08-31T10:07:27;98424.72;;;19.26;100.00
68169;BME280;54981;50.206;15.978;2023-08-31T10:09:58;98414.59;;;18.55;100.00
68169;BME280;54981;50.206;15.978;2023-08-31T10:12:30;98413.44;;;18.57;100.00
68169;BME280;54981;50.206;15.978;2023-08-31T10:15:01;98424.31;;;18.65;100.00
68169;BME280;54981;50.206;15.978;2023-08-31T10:17:33;98422.06;;;18.14;100.00
68169;BME280;54981;50.206;15.978;2023-08-31T10:20:04;98429.97;;;18.25;100.00
68169;BME280;54981;50.206;15.978;2023-08-31T10:22:36;98438.75;;;18.37;100.00
68169;BME280;54981;50.206;15.978;2023-08-31T10:25:08;98430.16;;;18.98;100.00
68169;BME280;54981;50.206;15.978;2023-08-31T10:27:43;98424.66;;;19.35;100.00
68169;BME280;54981;50.206;15.978;2023-08-31T10:30:26;98426.00;;;19.31;100.00
68169;BME280;54981;50.206;15.978;2023-08-31T10:35:56;98419.13;;;20.09;100.00
68169;BME280;54981;50.206;15.978;2023-08-31T10:38:30;98421.13;;;20.07;100.00
68169;BME280;54981;50.206;15.978;2023-08-31T10:43:44;98417.38;;;20.26;100.00
68169;BME280;54981;50.206;15.978;2023-08-31T10:49:01;98427.97;;;21.14;100.00
68169;BME280;54981;50.206;15.978;2023-08-31T10:51:45;98420.66;;;21.48;100.00
68169;BME280;54981;50.206;15.978;2023-08-31T10:54:30;98423.78;;;21.19;100.00
68169;BME280;54981;50.206;15.978;2023-08-31T10:57:03;98426.81;;;20.74;100.00
68169;BME280;54981;50.206;15.978;2023-08-31T10:59:50;98422.47;;;19.85;100.00
68169;BME280;54981;50.206;15.978;2023-08-31T11:10:21;98430.94;;;19.72;100.00
68169;BME280;54981;50.206;15.978;2023-08-31T11:12:54;98428.69;;;19.31;100.00
68169;BME280;54981;50.206;15.978;2023-08-31T11:15:26;98437.91;;;19.11;100.00
68169;BME280;54981;50.206;15.978;2023-08-31T11:17:57;98437.50;;;19.06;100.00
68169;BME280;54981;50.206;15.978;2023-08-31T11:20:30;98430.50;;;19.13;100.00
68169;BME280;54981;50.206;15.978;2023-08-31T11:23:01;98430.50;;;19.13;100.00
68169;BME280;54981;50.206;15.978;2023-08-31T11:25:33;98432.00;;;18.98;100.00
68169;BME280;54981;50.206;15.978;2023-08-31T11:28:05;98424.13;;;19.50;100.00
68169;BME280;54981;50.206;15.978;2023-08-31T11:30:37;98425.72;;;20.14;100.00
68169;BME280;54981;50.206;15.978;2023-08-31T11:33:08;98429.81;;;20.18;100.00
68169;BME280;54981;50.206;15.978;2023-08-31T11:35:42;98420.94;;;20.08;100.00
68169;BME280;54981;50.206;15.978;2023-08-31T11:38:13;98422.69;;;20.17;100.00
68169;BME280;54981;50.206;15.978;2023-08-31T11:40:45;98425.84;;;20.31;100.00
68169;BME280;54981;50.206;15.978;2023-08-31T11:43:15;98416.28;;;20.71;100.00
68169;BME280;54981;50.206;15.978;2023-08-31T11:45:46;98424.00;;;20.92;100.00
68169;BME280;54981;50.206;15.978;2023-08-31T11:49:23;98423.22;;;19.59;100.00
68169;BME280;54981;50.206;15.978;2023-08-31T11:51:54;98434.22;;;19.48;100.00
68169;BME280;54981;50.206;15.978;2023-08-31T11:54:25;98425.56;;;19.26;100.00
68169;BME280;54981;50.206;15.978;2023-08-31T11:56:55;98427.31;;;19.63;100.00
68169;BME280;54981;50.206;15.978;2023-08-31T11:59:26;98427.97;;;20.01;100.00
68169;BME280;54981;50.206;15.978;2023-08-31T12:01:56;98433.41;;;20.27;100.00
68169;BME280;54981;50.206;15.978;2023-08-31T12:04:28;98429.13;;;20.16;100.00
68169;BME280;54981;50.206;15.978;2023-08-31T12:07:02;98434.22;;;19.75;100.00
68169;BME280;54981;50.206;15.978;2023-08-31T12:09:36;98441.06;;;20.32;100.00
68169;BME280;54981;50.206;15.978;2023-08-31T12:12:07;98437.44;;;21.10;96.34
68169;BME280;54981;50.206;15.978;2023-08-31T12:14:38;98446.56;;;21.09;100.00
68169;BME280;54981;50.206;15.978;2023-08-31T12:17:11;98438.50;;;20.82;100.00
68169;BME280;54981;50.206;15.978;2023-08-31T12:19:41;98438.78;;;20.45;100.00
68169;BME280;54981;50.206;15.978;2023-08-31T12:22:12;98442.56;;;20.08;100.00
68169;BME280;54981;50.206;15.978;2023-08-31T12:24:42;98446.88;;;19.75;100.00
68169;BME280;54981;50.206;15.978;2023-08-31T12:27:13;98455.00;;;19.47;100.00
68169;BME280;54981;50.206;15.978;2023-08-31T12:29:43;98439.94;;;19.45;100.00
68169;BME280;54981;50.206;15.978;2023-08-31T12:32:14;98455.91;;;19.38;100.00
68169;BME280;54981;50.206;15.978;2023-08-31T12:34:44;98455.47;;;19.61;100.00
68169;BME280;54981;50.206;15.978;2023-08-31T12:37:14;98451.84;;;19.52;100.00
68169;BME280;54981;50.206;15.978;2023-08-31T12:39:45;98448.13;;;19.35;100.00
68169;BME280;54981;50.206;15.978;2023-08-31T12:42:16;98449.72;;;19.73;100.00
68169;BME280;54981;50.206;15.978;2023-08-31T12:44:46;98453.78;;;19.95;100.00
68169;BME280;54981;50.206;15.978;2023-08-31T12:47:16;98451.50;;;20.27;100.00
68169;BME280;54981;50.206;15.978;2023-08-31T12:49:47;98455.97;;;19.92;100.00
68169;BME280;54981;50.206;15.978;2023-08-31T12:52:17;98455.75;;;20.29;100.00
68169;BME280;54981;50.206;15.978;2023-08-31T12:54:47;98447.22;;;20.42;100.00
68169;BME280;54981;50.206;15.978;2023-08-31T12:57:24;98450.69;;;20.87;100.00
68169;BME280;54981;50.206;15.978;2023-08-31T12:59:54;98444.34;;;21.46;100.00
68169;BME280;54981;50.206;15.978;2023-08-31T13:02:24;98448.00;;;21.29;100.00
68169;BME280;54981;50.206;15.978;2023-08-31T13:04:55;98445.25;;;21.21;100.00
68169;BME280;54981;50.206;15.978;2023-08-31T13:07:25;98443.22;;;21.82;100.00
68169;BME280;54981;50.206;15.978;2023-08-31T13:09:55;98445.25;;;21.21;100.00
68169;BME280;54981;50.206;15.978;2023-08-31T13:12:26;98439.28;;;21.52;100.00
68169;BME280;54981;50.206;15.978;2023-08-31T13:14:57;98449.31;;;21.17;100.00
68169;BME280;54981;50.206;15.978;2023-08-31T13:17:28;98456.69;;;21.06;100.00
68169;BME280;54981;50.206;15.978;2023-08-31T13:19:58;98458.44;;;21.58;100.00
68169;BME280;54981;50.206;15.978;2023-08-31T13:22:29;98454.06;;;21.23;100.00
68169;BME280;54981;50.206;15.978;2023-08-31T13:24:59;98457.59;;;21.58;100.00
68169;BME280;54981;50.206;15.978;2023-08-31T13:27:29;98462.97;;;21.49;99.56
68169;BME280;54981;50.206;15.978;2023-08-31T13:30:00;98461.38;;;20.36;100.00
68169;BME280;54981;50.206;15.978;2023-08-31T13:32:32;98461.28;;;19.84;100.00
68169;BME280;54981;50.206;15.978;2023-08-31T13:35:02;98461.41;;;19.64;100.00
68169;BME280;54981;50.206;15.978;2023-08-31T13:37:33;98464.69;;;19.40;100.00
68169;BME280;54981;50.206;15.978;2023-08-31T13:40:04;98475.25;;;19.33;100.00
68169;BME280;54981;50.206;15.978;2023-08-31T13:42:49;98474.19;;;18.99;100.00